Flight Track Log - Related Links

Times and Time Zones

All times are in EDT time to prevent confusion due to time zone crossing. See the UCA597 flight status page for this flight to view local times or setup timezone preferences in your user account.


Time Position Orientation Groundspeed Altitude Reporting Facility
EDT Latitude Longitude Course Direction KTS MPH feet Rate Location/Type
Mon 05:44:37 PM 38.9500 -77.5000 293° West 145 167 1,400  Level Potomac TRACON
Mon 05:45:37 PM 38.9667 -77.5500 293° West 193 222 2,400 1,250 Climbing Potomac TRACON
Mon 05:46:37 PM 39.0000 -77.6167 303° West 194 223 3,900 1,474 Climbing Potomac TRACON
Mon 05:47:31 PM 39.0500 -77.6500 333° Northwest 202 232 5,200 1,500 Climbing Potomac TRACON
Mon 05:48:37 PM 39.1000 -77.6667 345° North 195 224 6,900 1,488 Climbing Potomac TRACON
Mon 05:49:32 PM 39.1500 -77.6833 346° North 194 223 8,200 1,357 Climbing Potomac TRACON
Mon 05:50:32 PM 39.2000 -77.6833 360° North 191 220 9,500 1,300 Climbing Potomac TRACON
Mon 05:51:32 PM 39.2500 -77.6667 14° North 203 234 10,800 1,250 Climbing Potomac TRACON
Mon 05:52:32 PM 39.3000 -77.6333 27° Northeast 207 238 12,000 1,200 Climbing Potomac TRACON
Mon 05:53:32 PM 39.3667 -77.6000 21° North 217 250 13,200 1,233 Climbing Potomac TRACON
Mon 05:54:58 PM 39.4350 -77.5639 22° Northeast 212 244 15,000 1,061 Climbing Washington Center
Mon 05:55:59 PM 39.4897 -77.5358 22° Northeast 212 244 15,800 744 Climbing Washington Center
Mon 05:56:59 PM 39.5486 -77.5050 22° Northeast 218 251 16,500 825 Climbing Washington Center
Mon 05:58:39 PM 39.6447 -77.4550 22° Northeast 225 259 18,000 900 Climbing New York Center
Mon 05:59:39 PM 39.7072 -77.4528 North 204 235 18,900 500 Climbing New York Center
Mon 06:00:39 PM 39.7658 -77.4503 North 204 235 19,000 50 Climbing New York Center
Mon 06:01:39 PM 39.8386 -77.4572 356° North 229 264 19,000  Level New York Center
Mon 06:02:39 PM 39.8908 -77.4919 333° Northwest 234 269 19,000  Level New York Center
Mon 06:03:39 PM 39.9617 -77.5286 338° Northwest 245 282 19,000  Level New York Center
Mon 06:04:39 PM 40.0161 -77.5583 337° Northwest 245 282 19,000  Level New York Center
Mon 06:05:39 PM 40.0872 -77.5925 340° North 245 282 19,000  Level New York Center
Mon 06:06:39 PM 40.1453 -77.5628 21° North 236 272 19,000  Level New York Center
Mon 06:07:39 PM 40.2167 -77.5153 27° Northeast 249 287 19,000  Level New York Center
Mon 06:08:39 PM 40.2753 -77.4747 28° Northeast 268 308 19,000  Level New York Center
Mon 06:09:39 PM 40.3492 -77.4247 27° Northeast 268 308 19,000  Level New York Center
Mon 06:10:39 PM 40.4078 -77.3839 28° Northeast 268 308 19,000  Level New York Center
Mon 06:11:39 PM 40.4814 -77.3336 27° Northeast 268 308 19,000  Level New York Center
Mon 06:12:39 PM 40.5400 -77.2900 29° Northeast 268 308 19,000  Level New York Center
Mon 06:13:39 PM 40.6156 -77.2425 26° Northeast 273 314 19,000 -200 Level New York Center
Mon 06:14:39 PM 40.6831 -77.1914 30° Northeast 273 314 18,600 -450 Descending New York Center
Mon 06:15:39 PM 40.7544 -77.1433 27° Northeast 273 314 18,100 -400 Descending New York Center
Mon 06:16:39 PM 40.8258 -77.0950 27° Northeast 273 314 17,800 -400 Descending New York Center
Mon 06:17:39 PM 40.8972 -77.0442 28° Northeast 278 320 17,300 -400 Descending New York Center
Mon 06:18:39 PM 40.9708 -76.9931 28° Northeast 283 326 17,000 -500 Descending New York Center
Mon 06:19:39 PM 41.0403 -76.9417 29° Northeast 283 326 16,300 -750 Descending New York Center
Mon 06:20:39 PM 41.1114 -76.8931 27° Northeast 283 326 15,500 -650 Descending New York Center
Mon 06:21:39 PM 41.1806 -76.8442 28° Northeast 283 326 15,000 -250 Descending New York Center
Mon 06:22:39 PM 41.2497 -76.7981 27° Northeast 278 320 15,000  Level New York Center
Mon 06:23:39 PM 41.3189 -76.7489 28° Northeast 273 314 15,000  Level New York Center
Mon 06:24:39 PM 41.3858 -76.6994 29° Northeast 273 314 15,000  Level New York Center
Mon 06:25:39 PM 41.4467 -76.6522 30° Northeast 278 320 15,000  Level New York Center
Mon 06:26:39 PM 41.5200 -76.5978 29° Northeast 278 320 15,000  Level New York Center
Mon 06:27:39 PM 41.5889 -76.5511 27° Northeast 273 314 15,000 -450 Level New York Center
Mon 06:28:39 PM 41.6600 -76.5017 27° Northeast 273 314 14,100 -1,000 Descending New York Center
Mon 06:29:39 PM 41.7272 -76.4517 29° Northeast 291 335 13,000 -1,150 Descending New York Center
Mon 06:30:39 PM 41.7983 -76.3994 29° Northeast 291 335 11,800 -1,350 Descending New York Center
Mon 06:31:39 PM 41.8761 -76.3419 29° Northeast 292 336 10,300 -1,400 Descending New York Center
Mon 06:32:39 PM 41.9450 -76.2919 28° Northeast 287 330 9,000 -1,600 Descending New York Center
Mon 06:33:39 PM 42.0097 -76.2444 29° Northeast 273 314 7,100 -1,850 Descending New York Center
Mon 06:34:39 PM 42.0633 -76.2069 27° Northeast 259 298 5,300 -1,550 Descending New York Center
Mon 06:35:39 PM 42.1214 -76.1642 29° Northeast 248 285 4,000 -700 Descending New York Center
Mon 06:36:39 PM 42.1797 -76.1214 29° Northeast 237 273 3,900 -400 Descending New York Center
Mon 06:37:39 PM 42.2339 -76.0725 34° Northeast 237 273 3,200 -800 Descending New York Center
Mon 06:38:39 PM 42.2492 -76.0094 72° East 196 226 2,300 -500 Descending New York Center
Mon 06:39:39 PM 42.2575 -75.9594 77° East 196 226 2,200 3,350 Descending New York Center
Mon 06:40:39 PM 42.2761 -75.9133 61° Northeast 196 226 9,000 3,400 Climbing New York Center
Mon 06:41:39 PM 42.2931 -75.8642 65° Northeast 196 226 9,000  Level New York Center
Mon 06:43:00 PM 42.2250 -75.9570 North  Level Estimated
Mon 06:50:00 PM 42.2000 -75.9667 North  Level FlightAware Approximate
Mon 06:51:00 PM 42.2084 -75.9796 North  Level Estimated
Mon 06:52:00 PM 42.2084 -75.9796 North  Level Estimated
Mon 06:53:00 PM 42.2084 -75.9796 North  Level Estimated
Mon 06:54:00 PM 42.2084 -75.9796 North  Level Estimated
Mon 06:55:00 PM 42.2084 -75.9796 North  Level Estimated
Mon 06:56:00 PM 42.2084 -75.9796 North  Level Estimated

Login

Don't have an account? Register now (free) for customized features, flight alerts, and more!